sensor_id;sensor_type;location;lat;lon;timestamp;pressure;altitude;pressure_sealevel;temperature;humidity
20628;BME280;10473;42.734;24.258;2024-03-29T00:00:41;91994.09;;;9.36;50.12
20628;BME280;10473;42.734;24.258;2024-03-29T00:03:07;91991.94;;;9.33;50.90
20628;BME280;10473;42.734;24.258;2024-03-29T00:05:33;91992.88;;;9.52;51.44
20628;BME280;10473;42.734;24.258;2024-03-29T00:07:59;91987.13;;;9.50;51.28
20628;BME280;10473;42.734;24.258;2024-03-29T00:10:25;91981.25;;;9.03;52.98
20628;BME280;10473;42.734;24.258;2024-03-29T00:12:50;91987.78;;;9.12;51.45
20628;BME280;10473;42.734;24.258;2024-03-29T00:15:16;91991.13;;;9.19;51.78
20628;BME280;10473;42.734;24.258;2024-03-29T00:17:41;91991.13;;;9.13;51.45
20628;BME280;10473;42.734;24.258;2024-03-29T00:20:07;91993.97;;;8.98;52.16
20628;BME280;10473;42.734;24.258;2024-03-29T00:22:33;91994.53;;;9.20;52.13
20628;BME280;10473;42.734;24.258;2024-03-29T00:24:59;91993.34;;;9.16;51.96
20628;BME280;10473;42.734;24.258;2024-03-29T00:27:25;91990.94;;;9.28;51.59
20628;BME280;10473;42.734;24.258;2024-03-29T00:29:52;91997.09;;;9.20;51.96
20628;BME280;10473;42.734;24.258;2024-03-29T00:32:19;91995.94;;;8.96;52.98
20628;BME280;10473;42.734;24.258;2024-03-29T00:34:44;91998.69;;;9.14;52.12
20628;BME280;10473;42.734;24.258;2024-03-29T00:37:11;91998.09;;;9.19;51.62
20628;BME280;10473;42.734;24.258;2024-03-29T00:39:36;92005.25;;;8.97;52.87
20628;BME280;10473;42.734;24.258;2024-03-29T00:42:03;91999.47;;;9.08;52.54
20628;BME280;10473;42.734;24.258;2024-03-29T00:44:32;92002.47;;;8.98;52.25
20628;BME280;10473;42.734;24.258;2024-03-29T00:46:58;91998.09;;;8.99;52.78
20628;BME280;10473;42.734;24.258;2024-03-29T00:49:24;91991.16;;;8.86;53.18
20628;BME280;10473;42.734;24.258;2024-03-29T00:51:50;91994.75;;;8.85;53.12
20628;BME280;10473;42.734;24.258;2024-03-29T00:54:16;91989.19;;;8.95;51.90
20628;BME280;10473;42.734;24.258;2024-03-29T00:56:41;91995.91;;;8.76;54.00
20628;BME280;10473;42.734;24.258;2024-03-29T00:59:07;92003.09;;;8.87;52.64
20628;BME280;10473;42.734;24.258;2024-03-29T01:01:32;91998.13;;;8.92;52.40
20628;BME280;10473;42.734;24.258;2024-03-29T01:03:58;92003.03;;;8.60;53.04
20628;BME280;10473;42.734;24.258;2024-03-29T01:06:23;92000.28;;;8.62;53.54
20628;BME280;10473;42.734;24.258;2024-03-29T01:08:49;91996.72;;;8.83;53.16
20628;BME280;10473;42.734;24.258;2024-03-29T01:11:14;91997.94;;;8.80;54.32
20628;BME280;10473;42.734;24.258;2024-03-29T01:13:40;91992.13;;;8.72;53.64
20628;BME280;10473;42.734;24.258;2024-03-29T01:16:06;91991.75;;;8.88;53.73
20628;BME280;10473;42.734;24.258;2024-03-29T01:18:31;92001.06;;;8.49;55.07
20628;BME280;10473;42.734;24.258;2024-03-29T01:20:58;91995.72;;;8.64;53.75
20628;BME280;10473;42.734;24.258;2024-03-29T01:23:23;91985.22;;;8.72;53.29
20628;BME280;10473;42.734;24.258;2024-03-29T01:25:49;91987.78;;;8.66;53.18
20628;BME280;10473;42.734;24.258;2024-03-29T01:28:14;91982.81;;;8.71;54.21
20628;BME280;10473;42.734;24.258;2024-03-29T01:30:40;91982.81;;;8.64;54.15
20628;BME280;10473;42.734;24.258;2024-03-29T01:33:05;91999.09;;;8.58;54.40
20628;BME280;10473;42.734;24.258;2024-03-29T01:35:31;92003.44;;;8.64;54.34
20628;BME280;10473;42.734;24.258;2024-03-29T01:37:56;92001.41;;;8.39;55.40
20628;BME280;10473;42.734;24.258;2024-03-29T01:40:22;91995.44;;;8.39;55.40
20628;BME280;10473;42.734;24.258;2024-03-29T01:42:47;92009.03;;;8.06;56.46
20628;BME280;10473;42.734;24.258;2024-03-29T01:45:13;92011.22;;;8.02;57.17
20628;BME280;10473;42.734;24.258;2024-03-29T01:47:38;92012.69;;;8.32;54.42
20628;BME280;10473;42.734;24.258;2024-03-29T01:50:04;92003.75;;;8.34;54.61
20628;BME280;10473;42.734;24.258;2024-03-29T01:52:31;92006.91;;;8.16;55.03
20628;BME280;10473;42.734;24.258;2024-03-29T01:54:57;92013.47;;;8.26;55.79
20628;BME280;10473;42.734;24.258;2024-03-29T01:57:23;92013.47;;;8.39;55.46
20628;BME280;10473;42.734;24.258;2024-03-29T01:59:49;92019.03;;;8.36;55.67
20628;BME280;10473;42.734;24.258;2024-03-29T02:02:15;92024.66;;;8.46;55.37
20628;BME280;10473;42.734;24.258;2024-03-29T02:04:41;92017.66;;;8.27;55.98
20628;BME280;10473;42.734;24.258;2024-03-29T02:07:07;92028.81;;;8.47;55.47
20628;BME280;10473;42.734;24.258;2024-03-29T02:09:33;92031.19;;;8.49;55.08
20628;BME280;10473;42.734;24.258;2024-03-29T02:11:58;92033.56;;;8.43;56.27
20628;BME280;10473;42.734;24.258;2024-03-29T02:14:24;92028.94;;;8.39;56.14
20628;BME280;10473;42.734;24.258;2024-03-29T02:16:49;92044.28;;;7.92;57.08
20628;BME280;10473;42.734;24.258;2024-03-29T02:19:15;92047.63;;;7.93;58.04
20628;BME280;10473;42.734;24.258;2024-03-29T02:21:44;92050.66;;;8.03;56.16
20628;BME280;10473;42.734;24.258;2024-03-29T02:24:12;92057.94;;;7.93;57.87
20628;BME280;10473;42.734;24.258;2024-03-29T02:26:40;92056.97;;;7.94;57.28
20628;BME280;10473;42.734;24.258;2024-03-29T02:29:08;92044.34;;;8.12;56.46
20628;BME280;10473;42.734;24.258;2024-03-29T02:31:35;92053.41;;;7.95;57.53
20628;BME280;10473;42.734;24.258;2024-03-29T02:34:00;92057.38;;;7.63;57.79
20628;BME280;10473;42.734;24.258;2024-03-29T02:36:26;92059.25;;;7.75;57.76
20628;BME280;10473;42.734;24.258;2024-03-29T02:38:51;92062.59;;;7.76;57.77
20628;BME280;10473;42.734;24.258;2024-03-29T02:41:18;92061.44;;;7.78;58.22
20628;BME280;10473;42.734;24.258;2024-03-29T02:43:43;92080.34;;;7.57;59.29
20628;BME280;10473;42.734;24.258;2024-03-29T02:46:09;92074.69;;;7.75;58.52
20628;BME280;10473;42.734;24.258;2024-03-29T02:48:34;92085.34;;;7.66;58.25
20628;BME280;10473;42.734;24.258;2024-03-29T02:51:00;92087.19;;;7.78;59.07
20628;BME280;10473;42.734;24.258;2024-03-29T02:53:25;92092.25;;;7.65;58.66
20628;BME280;10473;42.734;24.258;2024-03-29T02:55:51;92100.13;;;7.85;57.98
20628;BME280;10473;42.734;24.258;2024-03-29T02:58:16;92104.22;;;7.79;57.95
20628;BME280;10473;42.734;24.258;2024-03-29T03:00:42;92106.22;;;7.84;58.19
20628;BME280;10473;42.734;24.258;2024-03-29T03:03:07;92102.50;;;7.93;57.87
20628;BME280;10473;42.734;24.258;2024-03-29T03:05:33;92110.44;;;7.57;59.28
20628;BME280;10473;42.734;24.258;2024-03-29T03:07:58;92116.41;;;7.64;58.70
20628;BME280;10473;42.734;24.258;2024-03-29T03:10:46;92124.22;;;7.77;57.63
20628;BME280;10473;42.734;24.258;2024-03-29T03:13:21;92123.34;;;7.64;58.33
20628;BME280;10473;42.734;24.258;2024-03-29T03:15:47;92129.88;;;7.94;58.22
20628;BME280;10473;42.734;24.258;2024-03-29T03:18:13;92136.88;;;7.72;58.63
20628;BME280;10473;42.734;24.258;2024-03-29T03:20:38;92130.56;;;7.75;59.38
20628;BME280;10473;42.734;24.258;2024-03-29T03:23:04;92136.50;;;7.75;58.41
20628;BME280;10473;42.734;24.258;2024-03-29T03:25:29;92141.03;;;7.73;58.85
20628;BME280;10473;42.734;24.258;2024-03-29T03:27:55;92139.34;;;7.87;57.90
20628;BME280;10473;42.734;24.258;2024-03-29T03:30:21;92143.69;;;7.87;58.19
20628;BME280;10473;42.734;24.258;2024-03-29T03:32:47;92148.41;;;7.76;57.79
20628;BME280;10473;42.734;24.258;2024-03-29T03:35:13;92152.06;;;7.95;57.32
20628;BME280;10473;42.734;24.258;2024-03-29T03:37:39;92155.91;;;7.78;58.66
20628;BME280;10473;42.734;24.258;2024-03-29T03:40:05;92153.94;;;7.80;59.23
20628;BME280;10473;42.734;24.258;2024-03-29T03:42:32;92158.56;;;7.91;59.24
20628;BME280;10473;42.734;24.258;2024-03-29T03:44:57;92152.50;;;7.43;59.42
20628;BME280;10473;42.734;24.258;2024-03-29T03:47:23;92151.25;;;7.60;60.20
20628;BME280;10473;42.734;24.258;2024-03-29T03:49:49;92151.69;;;7.64;58.65
20628;BME280;10473;42.734;24.258;2024-03-29T03:52:14;92154.63;;;7.39;59.70
20628;BME280;10473;42.734;24.258;2024-03-29T03:54:40;92158.53;;;7.56;58.90
20628;BME280;10473;42.734;24.258;2024-03-29T03:57:06;92162.53;;;7.59;60.06
20628;BME280;10473;42.734;24.258;2024-03-29T03:59:31;92162.41;;;7.46;59.83
20628;BME280;10473;42.734;24.258;2024-03-29T04:01:57;92177.25;;;7.44;59.83
20628;BME280;10473;42.734;24.258;2024-03-29T04:04:23;92170.19;;;7.52;60.00
20628;BME280;10473;42.734;24.258;2024-03-29T04:06:48;92170.75;;;7.48;59.78
20628;BME280;10473;42.734;24.258;2024-03-29T04:09:15;92181.13;;;7.61;59.31
20628;BME280;10473;42.734;24.258;2024-03-29T04:11:43;92186.34;;;7.39;60.32
20628;BME280;10473;42.734;24.258;2024-03-29T04:14:09;92192.72;;;7.50;59.10
20628;BME280;10473;42.734;24.258;2024-03-29T04:16:34;92201.16;;;7.59;60.09
20628;BME280;10473;42.734;24.258;2024-03-29T04:19:00;92202.56;;;7.61;58.80
20628;BME280;10473;42.734;24.258;2024-03-29T04:21:26;92205.16;;;7.40;59.45
20628;BME280;10473;42.734;24.258;2024-03-29T04:23:51;92209.97;;;7.50;59.44
20628;BME280;10473;42.734;24.258;2024-03-29T04:26:17;92214.44;;;7.41;59.63
20628;BME280;10473;42.734;24.258;2024-03-29T04:28:42;92215.72;;;7.52;59.63
20628;BME280;10473;42.734;24.258;2024-03-29T04:31:08;92222.16;;;7.63;58.72
20628;BME280;10473;42.734;24.258;2024-03-29T04:33:33;92230.66;;;7.63;60.74
20628;BME280;10473;42.734;24.258;2024-03-29T04:36:01;92246.25;;;7.55;60.36
20628;BME280;10473;42.734;24.258;2024-03-29T04:38:27;92241.47;;;7.30;61.37
20628;BME280;10473;42.734;24.258;2024-03-29T04:40:54;92242.13;;;7.39;61.54
20628;BME280;10473;42.734;24.258;2024-03-29T04:43:27;92244.97;;;7.44;61.17
20628;BME280;10473;42.734;24.258;2024-03-29T04:46:03;92251.53;;;7.25;61.99
20628;BME280;10473;42.734;24.258;2024-03-29T04:48:32;92250.06;;;7.37;60.27
20628;BME280;10473;42.734;24.258;2024-03-29T04:50:58;92256.63;;;7.40;60.38
20628;BME280;10473;42.734;24.258;2024-03-29T04:53:23;92256.28;;;7.50;60.19
20628;BME280;10473;42.734;24.258;2024-03-29T04:55:56;92243.75;;;7.61;59.98
20628;BME280;10473;42.734;24.258;2024-03-29T04:58:22;92258.19;;;7.63;60.25
20628;BME280;10473;42.734;24.258;2024-03-29T05:00:49;92257.56;;;7.82;60.67
20628;BME280;10473;42.734;24.258;2024-03-29T05:03:16;92249.13;;;8.45;57.98
20628;BME280;10473;42.734;24.258;2024-03-29T05:05:42;92256.44;;;8.82;57.01
20628;BME280;10473;42.734;24.258;2024-03-29T05:08:07;92260.63;;;9.52;55.01
20628;BME280;10473;42.734;24.258;2024-03-29T05:10:33;92249.38;;;10.33;53.41
20628;BME280;10473;42.734;24.258;2024-03-29T05:13:00;92261.72;;;11.02;50.15
20628;BME280;10473;42.734;24.258;2024-03-29T05:15:26;92253.19;;;11.02;49.72
20628;BME280;10473;42.734;24.258;2024-03-29T05:17:51;92265.41;;;11.26;48.67
20628;BME280;10473;42.734;24.258;2024-03-29T05:20:19;92256.97;;;12.08;46.81
20628;BME280;10473;42.734;24.258;2024-03-29T05:22:44;92268.56;;;12.56;45.99
20628;BME280;10473;42.734;24.258;2024-03-29T05:25:10;92265.97;;;13.11;44.98
20628;BME280;10473;42.734;24.258;2024-03-29T05:27:36;92264.66;;;13.39;42.87
20628;BME280;10473;42.734;24.258;2024-03-29T05:30:02;92263.22;;;13.73;42.69
20628;BME280;10473;42.734;24.258;2024-03-29T05:32:29;92274.59;;;14.02;42.18
20628;BME280;10473;42.734;24.258;2024-03-29T05:34:55;92275.09;;;14.34;41.95
20628;BME280;10473;42.734;24.258;2024-03-29T05:37:20;92266.38;;;14.17;41.73
20628;BME280;10473;42.734;24.258;2024-03-29T05:39:49;92278.13;;;14.08;40.72
20628;BME280;10473;42.734;24.258;2024-03-29T05:42:17;92283.03;;;14.51;41.77
20628;BME280;10473;42.734;24.258;2024-03-29T05:44:45;92275.47;;;14.50;41.14
20628;BME280;10473;42.734;24.258;2024-03-29T05:47:11;92266.06;;;14.37;40.75
20628;BME280;10473;42.734;24.258;2024-03-29T05:49:36;92272.50;;;14.34;40.58
20628;BME280;10473;42.734;24.258;2024-03-29T05:52:02;92275.16;;;14.82;40.77
20628;BME280;10473;42.734;24.258;2024-03-29T05:54:28;92280.47;;;14.63;40.47
20628;BME280;10473;42.734;24.258;2024-03-29T05:56:53;92279.66;;;14.74;40.91
20628;BME280;10473;42.734;24.258;2024-03-29T05:59:19;92272.31;;;14.83;40.03
20628;BME280;10473;42.734;24.258;2024-03-29T06:01:45;92288.25;;;15.10;40.09
20628;BME280;10473;42.734;24.258;2024-03-29T06:04:10;92271.50;;;15.06;40.29
20628;BME280;10473;42.734;24.258;2024-03-29T06:06:44;92279.28;;;14.35;40.99
20628;BME280;10473;42.734;24.258;2024-03-29T06:09:10;92288.13;;;14.46;42.43
20628;BME280;10473;42.734;24.258;2024-03-29T06:11:35;92297.88;;;14.51;42.94
20628;BME280;10473;42.734;24.258;2024-03-29T06:14:01;92288.97;;;14.82;40.26
20628;BME280;10473;42.734;24.258;2024-03-29T06:16:28;92288.94;;;14.94;41.07
20628;BME280;10473;42.734;24.258;2024-03-29T06:19:12;92290.31;;;14.61;40.00
20628;BME280;10473;42.734;24.258;2024-03-29T06:21:38;92291.00;;;14.56;39.87
20628;BME280;10473;42.734;24.258;2024-03-29T06:24:08;92298.81;;;15.04;39.61
20628;BME280;10473;42.734;24.258;2024-03-29T06:26:34;92298.66;;;15.63;37.63
20628;BME280;10473;42.734;24.258;2024-03-29T06:29:00;92293.19;;;16.05;38.35
20628;BME280;10473;42.734;24.258;2024-03-29T06:31:26;92291.00;;;15.85;37.05
20628;BME280;10473;42.734;24.258;2024-03-29T06:33:52;92305.47;;;16.21;37.82
20628;BME280;10473;42.734;24.258;2024-03-29T06:36:17;92291.31;;;15.07;38.24
20628;BME280;10473;42.734;24.258;2024-03-29T06:38:43;92302.88;;;15.52;39.17
20628;BME280;10473;42.734;24.258;2024-03-29T06:41:09;92313.09;;;15.53;37.57
20628;BME280;10473;42.734;24.258;2024-03-29T06:43:35;92316.31;;;15.32;39.05
20628;BME280;10473;42.734;24.258;2024-03-29T06:46:00;92310.69;;;15.64;37.41
20628;BME280;10473;42.734;24.258;2024-03-29T06:48:28;92308.31;;;15.62;37.19
20628;BME280;10473;42.734;24.258;2024-03-29T06:50:54;92298.84;;;15.44;38.02
20628;BME280;10473;42.734;24.258;2024-03-29T06:53:19;92311.66;;;15.86;39.17
20628;BME280;10473;42.734;24.258;2024-03-29T06:55:45;92315.38;;;16.36;36.44
20628;BME280;10473;42.734;24.258;2024-03-29T06:58:11;92320.78;;;16.00;37.11
20628;BME280;10473;42.734;24.258;2024-03-29T07:00:36;92307.59;;;16.07;38.04
20628;BME280;10473;42.734;24.258;2024-03-29T07:03:02;92315.41;;;16.07;37.62
20628;BME280;10473;42.734;24.258;2024-03-29T07:05:27;92334.38;;;16.65;38.04
20628;BME280;10473;42.734;24.258;2024-03-29T07:07:53;92343.59;;;15.93;39.85
20628;BME280;10473;42.734;24.258;2024-03-29T07:10:19;92323.50;;;16.22;39.28
20628;BME280;10473;42.734;24.258;2024-03-29T07:12:45;92348.47;;;16.64;40.50
20628;BME280;10473;42.734;24.258;2024-03-29T07:15:10;92350.72;;;16.43;38.10
20628;BME280;10473;42.734;24.258;2024-03-29T07:17:36;92308.56;;;16.18;39.21
20628;BME280;10473;42.734;24.258;2024-03-29T07:20:01;92311.63;;;16.15;40.64
20628;BME280;10473;42.734;24.258;2024-03-29T07:22:28;92332.75;;;16.30;39.33
20628;BME280;10473;42.734;24.258;2024-03-29T07:24:53;92309.22;;;15.96;40.61
20628;BME280;10473;42.734;24.258;2024-03-29T07:27:19;92343.97;;;16.14;37.80
20628;BME280;10473;42.734;24.258;2024-03-29T07:29:45;92323.66;;;17.17;34.77
20628;BME280;10473;42.734;24.258;2024-03-29T07:32:11;92331.16;;;16.92;34.50
20628;BME280;10473;42.734;24.258;2024-03-29T07:34:36;92333.72;;;17.48;35.77
20628;BME280;10473;42.734;24.258;2024-03-29T07:37:04;92303.69;;;17.72;32.55
20628;BME280;10473;42.734;24.258;2024-03-29T07:39:30;92330.44;;;17.35;35.56
20628;BME280;10473;42.734;24.258;2024-03-29T07:41:55;92330.78;;;17.61;35.99
20628;BME280;10473;42.734;24.258;2024-03-29T07:44:21;92316.34;;;17.58;35.33
20628;BME280;10473;42.734;24.258;2024-03-29T07:46:46;92346.72;;;16.53;33.98
20628;BME280;10473;42.734;24.258;2024-03-29T07:49:14;92330.44;;;17.13;36.74
20628;BME280;10473;42.734;24.258;2024-03-29T07:51:39;92312.81;;;18.19;31.57
20628;BME280;10473;42.734;24.258;2024-03-29T07:54:05;92310.69;;;17.89;31.91
20628;BME280;10473;42.734;24.258;2024-03-29T07:56:30;92322.78;;;18.49;33.08
20628;BME280;10473;42.734;24.258;2024-03-29T07:58:56;92308.34;;;18.46;32.67
20628;BME280;10473;42.734;24.258;2024-03-29T08:01:22;92327.53;;;18.52;31.91
20628;BME280;10473;42.734;24.258;2024-03-29T08:03:50;92318.81;;;18.41;31.70
20628;BME280;10473;42.734;24.258;2024-03-29T08:06:16;92324.53;;;19.50;32.14
20628;BME280;10473;42.734;24.258;2024-03-29T08:08:44;92330.47;;;19.78;30.26
20628;BME280;10473;42.734;24.258;2024-03-29T08:11:11;92333.88;;;19.84;29.91
20628;BME280;10473;42.734;24.258;2024-03-29T08:13:38;92330.09;;;19.59;28.85
20628;BME280;10473;42.734;24.258;2024-03-29T08:16:05;92322.94;;;19.49;30.45
20628;BME280;10473;42.734;24.258;2024-03-29T08:18:32;92314.72;;;19.83;29.18
20628;BME280;10473;42.734;24.258;2024-03-29T08:20:58;92323.38;;;19.84;29.38
20628;BME280;10473;42.734;24.258;2024-03-29T08:23:25;92330.94;;;20.84;27.79
20628;BME280;10473;42.734;24.258;2024-03-29T08:25:51;92327.00;;;20.71;28.08
20628;BME280;10473;42.734;24.258;2024-03-29T08:28:21;92326.72;;;20.93;26.97
20628;BME280;10473;42.734;24.258;2024-03-29T08:30:49;92330.41;;;21.08;27.28
20628;BME280;10473;42.734;24.258;2024-03-29T08:33:22;92320.13;;;21.11;28.65
20628;BME280;10473;42.734;24.258;2024-03-29T08:35:48;92330.34;;;20.26;28.83
20628;BME280;10473;42.734;24.258;2024-03-29T08:38:13;92326.69;;;21.24;28.11
20628;BME280;10473;42.734;24.258;2024-03-29T08:40:39;92315.13;;;21.25;27.61
20628;BME280;10473;42.734;24.258;2024-03-29T08:43:07;92333.81;;;21.03;27.90
20628;BME280;10473;42.734;24.258;2024-03-29T08:45:32;92333.56;;;20.79;27.73
20628;BME280;10473;42.734;24.258;2024-03-29T08:47:58;92331.16;;;21.29;27.90
20628;BME280;10473;42.734;24.258;2024-03-29T08:50:23;92331.94;;;21.45;25.76
20628;BME280;10473;42.734;24.258;2024-03-29T08:52:49;92323.28;;;21.13;26.81
20628;BME280;10473;42.734;24.258;2024-03-29T08:55:15;92322.22;;;22.05;27.72
20628;BME280;10473;42.734;24.258;2024-03-29T08:57:40;92322.97;;;22.61;25.26
20628;BME280;10473;42.734;24.258;2024-03-29T09:00:07;92327.03;;;22.82;25.17
20628;BME280;10473;42.734;24.258;2024-03-29T09:02:33;92325.06;;;23.03;25.65
20628;BME280;10473;42.734;24.258;2024-03-29T09:04:59;92328.22;;;21.56;26.01
20628;BME280;10473;42.734;24.258;2024-03-29T09:07:24;92329.09;;;22.51;24.88
20628;BME280;10473;42.734;24.258;2024-03-29T09:09:50;92334.03;;;20.45;27.67
20628;BME280;10473;42.734;24.258;2024-03-29T09:12:16;92334.03;;;20.50;28.55
20628;BME280;10473;42.734;24.258;2024-03-29T09:14:44;92326.69;;;22.10;26.46
20628;BME280;10473;42.734;24.258;2024-03-29T09:17:10;92313.41;;;21.70;26.88
20628;BME280;10473;42.734;24.258;2024-03-29T09:19:36;92310.44;;;21.92;25.95
20628;BME280;10473;42.734;24.258;2024-03-29T09:22:02;92305.81;;;21.69;26.85
20628;BME280;10473;42.734;24.258;2024-03-29T09:24:28;92307.94;;;21.57;27.73
20628;BME280;10473;42.734;24.258;2024-03-29T09:26:54;92308.78;;;21.31;27.52
20628;BME280;10473;42.734;24.258;2024-03-29T09:29:19;92315.06;;;21.51;26.53
20628;BME280;10473;42.734;24.258;2024-03-29T09:31:46;92308.53;;;21.18;27.37
20628;BME280;10473;42.734;24.258;2024-03-29T09:34:12;92320.94;;;20.81;28.53
20628;BME280;10473;42.734;24.258;2024-03-29T09:36:38;92310.91;;;21.14;27.86
20628;BME280;10473;42.734;24.258;2024-03-29T09:39:03;92304.47;;;21.71;27.28
20628;BME280;10473;42.734;24.258;2024-03-29T09:41:34;92297.81;;;21.89;27.66
20628;BME280;10473;42.734;24.258;2024-03-29T09:44:03;92307.00;;;20.86;27.31
20628;BME280;10473;42.734;24.258;2024-03-29T09:46:32;92288.50;;;21.42;27.36
20628;BME280;10473;42.734;24.258;2024-03-29T09:48:58;92293.84;;;21.92;26.90
20628;BME280;10473;42.734;24.258;2024-03-29T09:51:26;92296.09;;;21.59;26.51
20628;BME280;10473;42.734;24.258;2024-03-29T09:53:57;92294.03;;;21.36;26.97
20628;BME280;10473;42.734;24.258;2024-03-29T09:56:28;92295.06;;;21.50;26.41
20628;BME280;10473;42.734;24.258;2024-03-29T09:58:54;92309.09;;;20.94;28.82
20628;BME280;10473;42.734;24.258;2024-03-29T10:01:20;92306.75;;;20.77;28.97
20628;BME280;10473;42.734;24.258;2024-03-29T10:03:49;92307.78;;;20.97;28.77
20628;BME280;10473;42.734;24.258;2024-03-29T10:06:18;92298.41;;;21.76;27.03
20628;BME280;10473;42.734;24.258;2024-03-29T10:08:47;92305.16;;;21.07;28.81
20628;BME280;10473;42.734;24.258;2024-03-29T10:11:14;92305.59;;;21.40;26.79
20628;BME280;10473;42.734;24.258;2024-03-29T10:13:44;92290.59;;;22.10;28.40
20628;BME280;10473;42.734;24.258;2024-03-29T10:16:12;92290.84;;;22.59;25.96
20628;BME280;10473;42.734;24.258;2024-03-29T10:18:40;92291.44;;;22.01;26.87
20628;BME280;10473;42.734;24.258;2024-03-29T10:21:08;92286.75;;;21.92;26.06
20628;BME280;10473;42.734;24.258;2024-03-29T10:23:34;92285.41;;;21.95;26.22
20628;BME280;10473;42.734;24.258;2024-03-29T10:26:03;92280.03;;;21.56;27.27
20628;BME280;10473;42.734;24.258;2024-03-29T10:28:32;92287.97;;;21.50;26.36
20628;BME280;10473;42.734;24.258;2024-03-29T10:30:59;92285.03;;;21.62;26.82
20628;BME280;10473;42.734;24.258;2024-03-29T10:33:32;92286.63;;;21.53;28.47
20628;BME280;10473;42.734;24.258;2024-03-29T10:35:59;92277.31;;;22.31;26.30
20628;BME280;10473;42.734;24.258;2024-03-29T10:38:25;92288.13;;;21.80;26.58
20628;BME280;10473;42.734;24.258;2024-03-29T10:40:52;92290.16;;;21.93;27.78
20628;BME280;10473;42.734;24.258;2024-03-29T10:43:18;92276.34;;;22.17;26.55
20628;BME280;10473;42.734;24.258;2024-03-29T10:45:45;92278.84;;;22.37;26.84
20628;BME280;10473;42.734;24.258;2024-03-29T10:48:14;92281.81;;;22.30;27.18
20628;BME280;10473;42.734;24.258;2024-03-29T10:50:41;92279.84;;;21.97;27.14
20628;BME280;10473;42.734;24.258;2024-03-29T10:53:08;92277.00;;;21.88;28.06
20628;BME280;10473;42.734;24.258;2024-03-29T10:55:35;92273.34;;;21.84;27.27
20628;BME280;10473;42.734;24.258;2024-03-29T10:58:01;92273.00;;;22.01;27.43
20628;BME280;10473;42.734;24.258;2024-03-29T11:00:37;92273.25;;;21.49;27.89
20628;BME280;10473;42.734;24.258;2024-03-29T11:05:48;92270.84;;;21.53;27.38
20628;BME280;10473;42.734;24.258;2024-03-29T11:08:20;92271.19;;;21.96;28.78
20628;BME280;10473;42.734;24.258;2024-03-29T11:10:47;92268.03;;;21.94;25.88
20628;BME280;10473;42.734;24.258;2024-03-29T11:16:03;92281.13;;;22.54;27.46
20628;BME280;10473;42.734;24.258;2024-03-29T11:18:29;92268.06;;;22.39;27.88
20628;BME280;10473;42.734;24.258;2024-03-29T11:20:57;92262.94;;;22.52;27.42
20628;BME280;10473;42.734;24.258;2024-03-29T11:23:26;92249.72;;;22.23;27.02
20628;BME280;10473;42.734;24.258;2024-03-29T11:25:54;92243.03;;;22.36;26.63
20628;BME280;10473;42.734;24.258;2024-03-29T11:28:24;92242.78;;;21.88;26.48
20628;BME280;10473;42.734;24.258;2024-03-29T11:30:52;92248.00;;;21.98;27.55
20628;BME280;10473;42.734;24.258;2024-03-29T11:33:29;92238.44;;;22.12;26.36
20628;BME280;10473;42.734;24.258;2024-03-29T11:35:56;92237.72;;;22.02;26.85
20628;BME280;10473;42.734;24.258;2024-03-29T11:38:22;92225.72;;;22.25;24.81
20628;BME280;10473;42.734;24.258;2024-03-29T11:41:00;92233.91;;;21.68;26.39
20628;BME280;10473;42.734;24.258;2024-03-29T11:43:25;92243.97;;;22.50;25.28
20628;BME280;10473;42.734;24.258;2024-03-29T11:45:54;92239.41;;;22.27;24.95
20628;BME280;10473;42.734;24.258;2024-03-29T11:48:25;92257.19;;;22.01;27.00
20628;BME280;10473;42.734;24.258;2024-03-29T11:50:52;92243.38;;;21.80;26.30
20628;BME280;10473;42.734;24.258;2024-03-29T11:53:18;92251.28;;;22.19;28.49
20628;BME280;10473;42.734;24.258;2024-03-29T11:55:44;92234.69;;;22.24;26.47
20628;BME280;10473;42.734;24.258;2024-03-29T11:58:10;92244.28;;;22.04;27.82
20628;BME280;10473;42.734;24.258;2024-03-29T12:00:38;92235.38;;;21.90;26.68
20628;BME280;10473;42.734;24.258;2024-03-29T12:03:04;92228.03;;;21.87;26.27
20628;BME280;10473;42.734;24.258;2024-03-29T12:05:30;92232.13;;;22.08;26.53
20628;BME280;10473;42.734;24.258;2024-03-29T12:07:57;92228.75;;;22.42;27.04
20628;BME280;10473;42.734;24.258;2024-03-29T12:10:29;92228.53;;;22.33;27.65
20628;BME280;10473;42.734;24.258;2024-03-29T12:12:59;92230.28;;;22.09;28.09
20628;BME280;10473;42.734;24.258;2024-03-29T12:15:27;92224.34;;;22.32;28.39
20628;BME280;10473;42.734;24.258;2024-03-29T12:17:57;92228.81;;;22.66;27.32
20628;BME280;10473;42.734;24.258;2024-03-29T12:20:24;92224.16;;;22.58;27.10
20628;BME280;10473;42.734;24.258;2024-03-29T12:22:50;92229.25;;;22.44;27.14
20628;BME280;10473;42.734;24.258;2024-03-29T12:25:15;92223.91;;;22.54;26.20
20628;BME280;10473;42.734;24.258;2024-03-29T12:27:44;92216.25;;;22.53;26.61
20628;BME280;10473;42.734;24.258;2024-03-29T12:30:12;92223.03;;;22.64;27.66
20628;BME280;10473;42.734;24.258;2024-03-29T12:32:39;92226.41;;;22.70;27.09
20628;BME280;10473;42.734;24.258;2024-03-29T12:35:11;92218.81;;;22.29;27.28
20628;BME280;10473;42.734;24.258;2024-03-29T12:37:38;92221.78;;;22.22;27.05
20628;BME280;10473;42.734;24.258;2024-03-29T12:40:09;92219.94;;;22.86;26.27
20628;BME280;10473;42.734;24.258;2024-03-29T12:42:41;92208.38;;;22.82;25.67
20628;BME280;10473;42.734;24.258;2024-03-29T12:45:07;92211.00;;;22.53;26.00
20628;BME280;10473;42.734;24.258;2024-03-29T12:47:34;92218.63;;;22.54;25.76
20628;BME280;10473;42.734;24.258;2024-03-29T12:50:00;92211.56;;;22.50;27.35
20628;BME280;10473;42.734;24.258;2024-03-29T12:52:26;92224.09;;;22.29;26.02
20628;BME280;10473;42.734;24.258;2024-03-29T12:54:52;92213.84;;;22.27;27.37
20628;BME280;10473;42.734;24.258;2024-03-29T12:57:18;92218.03;;;22.63;25.95